Time;durP1;ratioP1;P1;durP2;ratioP2;P2;SDS_P1;SDS_P2;PMS_P1;PMS_P2;Temp;Humidity;BMP_temperature;BMP_pressure;BME280_temperature;BME280_humidity;BME280_pressure;Samples;Min_cycle;Max_cycle;Signal;HPM_P1;HPM_P2
2022/10/15 00:02:25;;;;;;;0.95;0.50;;;19.50;54.20;;;;;;20641844;28;20748;-83
2022/10/15 00:12:25;;;;;;;1.33;0.60;;;19.50;54.20;;;;;;20641788;28;20116;-80
2022/10/15 00:22:29;;;;;;;1.88;0.50;;;19.60;54.30;;;;;;20656322;28;20132;-82
2022/10/15 00:32:30;;;;;;;0.70;0.60;;;19.50;54.40;;;;;;20672515;28;20026;-82
2022/10/15 00:42:30;;;;;;;0.82;0.60;;;19.50;54.40;;;;;;20623239;28;20140;-82
2022/10/15 00:52:55;;;;;;;0.90;0.70;;;19.50;54.50;;;;;;20621971;28;20049;-80
2022/10/15 01:02:56;;;;;;;0.93;0.68;;;19.50;54.60;;;;;;20653965;28;20054;-83
2022/10/15 01:13:10;;;;;;;1.15;0.70;;;19.50;54.60;;;;;;20627745;28;20053;-82
2022/10/15 01:23:52;;;;;;;0.63;0.52;;;19.40;54.70;;;;;;20667968;28;20417;-82
2022/10/15 01:34:07;;;;;;;0.68;0.47;;;19.50;54.80;;;;;;20669779;28;20037;-81
2022/10/15 01:44:36;;;;;;;1.17;0.63;;;19.40;54.80;;;;;;20634449;28;20493;-81
2022/10/15 01:54:56;;;;;;;0.80;0.50;;;19.40;54.90;;;;;;21005783;22;20050;-81
2022/10/15 02:04:57;;;;;;;0.70;0.50;;;19.40;54.90;;;;;;20649367;28;20042;-82
2022/10/15 02:15:03;;;;;;;0.52;0.45;;;19.40;55.00;;;;;;20633165;28;20030;-81
2022/10/15 02:25:07;;;;;;;0.63;0.60;;;19.40;55.10;;;;;;20648345;28;20062;-82
2022/10/15 02:35:08;;;;;;;1.45;0.80;;;19.40;55.20;;;;;;20563452;28;20485;-81
2022/10/15 02:45:15;;;;;;;;;;;19.40;55.20;;;;;;20550868;28;20031;-81
2022/10/15 02:55:16;;;;;;;0.77;0.63;;;19.40;55.30;;;;;;20583045;28;19972;-80
2022/10/15 03:05:17;;;;;;;1.00;0.50;;;19.40;55.40;;;;;;20550442;28;20134;-81
2022/10/15 03:15:19;;;;;;;0.95;0.52;;;19.30;55.50;;;;;;20579558;28;20041;-81
2022/10/15 03:25:21;;;;;;;1.85;1.70;;;19.30;55.50;;;;;;20677915;28;20477;-82
2022/10/15 03:35:30;;;;;;;1.48;0.70;;;19.30;55.60;;;;;;20632525;28;20113;-82
2022/10/15 03:45:31;;;;;;;1.25;0.55;;;19.30;55.60;;;;;;20658051;28;20473;-82
2022/10/15 03:55:46;;;;;;;1.27;0.70;;;19.30;55.70;;;;;;20594493;28;20078;-81
2022/10/15 04:05:51;;;;;;;0.77;0.70;;;19.20;55.80;;;;;;20562291;28;20137;-82
2022/10/15 04:15:54;;;;;;;0.73;0.70;;;19.30;55.80;;;;;;20593315;28;20062;-81
2022/10/15 04:26:00;;;;;;;1.38;0.90;;;19.20;56.00;;;;;;20641335;28;20476;-82
2022/10/15 04:36:03;;;;;;;1.13;0.73;;;19.20;56.00;;;;;;20625252;28;20094;-81
2022/10/15 04:46:21;;;;;;;0.50;0.50;;;19.20;56.10;;;;;;20643195;28;20034;-82
2022/10/15 04:56:23;;;;;;;1.23;0.70;;;19.10;56.00;;;;;;20655539;28;20046;-82
2022/10/15 05:06:25;;;;;;;0.88;0.75;;;19.20;56.10;;;;;;20621581;28;20039;-81
2022/10/15 05:16:31;;;;;;;0.77;0.55;;;19.20;56.10;;;;;;20620855;28;20039;-82
2022/10/15 05:26:35;;;;;;;1.73;0.55;;;19.10;56.10;;;;;;20636129;28;20057;-82
2022/10/15 05:36:37;;;;;;;0.90;0.70;;;19.10;56.20;;;;;;20634512;28;20030;-82
2022/10/15 05:46:39;;;;;;;1.45;0.73;;;19.10;56.20;;;;;;20650785;28;20045;-83
2022/10/15 05:56:41;;;;;;;1.42;0.80;;;19.10;56.30;;;;;;20618904;28;20052;-83
2022/10/15 06:06:43;;;;;;;2.30;0.77;;;19.10;56.30;;;;;;20665994;28;20034;-82
2022/10/15 06:16:43;;;;;;;1.58;0.93;;;19.10;56.30;;;;;;20629140;28;20485;-74
2022/10/15 06:26:44;;;;;;;0.95;0.65;;;19.00;56.30;;;;;;20625229;28;20053;-71
2022/10/15 06:36:44;;;;;;;1.23;0.80;;;19.00;56.40;;;;;;20612043;28;20038;-76
2022/10/15 06:46:45;;;;;;;1.95;0.77;;;19.00;56.40;;;;;;20650832;28;20033;-75
2022/10/15 06:56:46;;;;;;;2.13;0.88;;;19.00;56.50;;;;;;20691273;28;20049;-74
2022/10/15 07:06:47;;;;;;;1.23;0.93;;;19.00;56.50;;;;;;20633789;28;20038;-77
2022/10/15 07:16:54;;;;;;;1.77;0.98;;;19.00;56.60;;;;;;20626002;28;20039;-77
2022/10/15 07:26:57;;;;;;;2.63;1.25;;;19.00;56.70;;;;;;20630859;28;20034;-78
2022/10/15 07:36:58;;;;;;;1.48;0.93;;;19.00;56.90;;;;;;20633312;28;20124;-75
2022/10/15 07:46:59;;;;;;;5.60;1.58;;;19.00;56.90;;;;;;20638511;28;20313;-75
2022/10/15 07:56:59;;;;;;;7.95;3.58;;;19.00;56.90;;;;;;20652455;28;20038;-75
2022/10/15 08:07:01;;;;;;;5.80;3.25;;;19.20;57.20;;;;;;20651043;28;20042;-75
2022/10/15 08:17:02;;;;;;;10.67;3.40;;;19.20;57.40;;;;;;20564770;28;20069;-72
2022/10/15 08:27:02;;;;;;;7.43;4.10;;;19.20;57.40;;;;;;20624094;28;20689;-79
2022/10/15 08:37:03;;;;;;;14.45;5.22;;;19.20;57.40;;;;;;20614548;28;20049;-81
2022/10/15 08:47:22;;;;;;;25.80;6.68;;;19.30;57.40;;;;;;20604726;28;20046;-72
2022/10/15 08:57:42;;;;;;;17.27;6.07;;;19.40;57.70;;;;;;20645533;28;20042;-77
2022/10/15 09:07:49;;;;;;;12.65;5.03;;;19.50;57.80;;;;;;20645957;28;20069;-74
2022/10/15 09:17:51;;;;;;;12.50;6.40;;;19.50;57.90;;;;;;20631832;28;20116;-73
2022/10/15 09:27:54;;;;;;;15.05;4.88;;;19.40;57.90;;;;;;20630350;28;20038;-73
2022/10/15 09:38:36;;;;;;;9.30;5.28;;;19.40;57.90;;;;;;20628909;28;20477;-72
2022/10/15 09:48:59;;;;;;;25.20;6.93;;;19.60;57.60;;;;;;20635628;28;20046;-73
2022/10/15 09:59:00;;;;;;;13.27;6.30;;;19.80;57.50;;;;;;20649757;28;20072;-73
2022/10/15 10:09:01;;;;;;;15.68;7.28;;;20.00;57.20;;;;;;20646859;28;20030;-72
2022/10/15 10:19:03;;;;;;;14.82;7.72;;;20.10;57.00;;;;;;20641603;28;20038;-73
2022/10/15 10:29:03;;;;;;;29.27;7.80;;;20.30;56.80;;;;;;20640758;28;20058;-72
2022/10/15 10:39:23;;;;;;;17.08;6.65;;;20.50;56.60;;;;;;20641235;28;20492;-77
2022/10/15 10:49:34;;;;;;;20.98;6.95;;;20.50;56.40;;;;;;20642137;28;20039;-71
2022/10/15 10:59:36;;;;;;;14.70;6.13;;;20.50;56.30;;;;;;20675149;28;20081;-71
2022/10/15 11:09:42;;;;;;;16.60;6.18;;;20.60;55.80;;;;;;20661249;28;20081;-75
2022/10/15 11:20:04;;;;;;;18.20;5.63;;;20.70;55.40;;;;;;20674692;28;20129;-76
2022/10/15 11:30:44;;;;;;;19.58;6.32;;;20.70;55.20;;;;;;20579442;28;20046;-78
2022/10/15 11:41:24;;;;;;;12.90;4.90;;;20.80;55.70;;;;;;20645810;28;20046;-74
2022/10/15 11:52:03;;;;;;;19.58;4.85;;;20.80;54.80;;;;;;20674808;28;20072;-76
2022/10/15 12:02:17;;;;;;;11.95;5.25;;;20.90;54.90;;;;;;20652866;28;20370;-73
2022/10/15 12:12:24;;;;;;;11.98;6.75;;;21.00;54.80;;;;;;20651839;28;20042;-73
2022/10/15 12:22:47;;;;;;;16.17;5.70;;;21.00;54.90;;;;;;20650775;28;20062;-75
2022/10/15 12:32:48;;;;;;;10.60;4.60;;;21.00;54.50;;;;;;20649280;28;20104;-74
2022/10/15 12:43:09;;;;;;;8.40;4.40;;;21.10;54.80;;;;;;20644499;28;20062;-74
2022/10/15 12:53:33;;;;;;;7.72;3.75;;;21.10;55.00;;;;;;20725478;28;20149;-77
2022/10/15 13:03:35;;;;;;;6.07;3.70;;;21.20;55.50;;;;;;20715243;28;20121;-77
2022/10/15 13:13:37;;;;;;;7.82;3.20;;;21.20;55.30;;;;;;20631761;28;20058;-78
2022/10/15 13:23:44;;;;;;;7.53;3.53;;;21.30;54.90;;;;;;20580288;28;20030;-77
2022/10/15 13:33:46;;;;;;;5.60;3.22;;;22.40;52.30;;;;;;20658859;28;20057;-84
2022/10/15 13:43:53;;;;;;;5.38;2.70;;;23.40;50.00;;;;;;20657831;28;20034;-81
2022/10/15 13:53:54;;;;;;;4.13;2.88;;;23.10;50.20;;;;;;20604485;28;20038;-75
2022/10/15 14:04:02;;;;;;;3.83;2.83;;;22.40;51.30;;;;;;20635755;28;20049;-76
2022/10/15 14:14:02;;;;;;;9.43;2.67;;;21.70;52.60;;;;;;20694183;28;20069;-77
2022/10/15 14:24:13;;;;;;;10.20;2.80;;;21.20;53.60;;;;;;20691051;28;20421;-76
2022/10/15 14:34:43;;;;;;;4.65;2.53;;;21.10;54.20;;;;;;20659348;28;20037;-77
2022/10/15 14:44:46;;;;;;;4.28;2.20;;;20.80;54.70;;;;;;20660938;28;20056;-76
2022/10/15 14:55:26;;;;;;;10.68;3.85;;;20.70;54.90;;;;;;20678707;28;20695;-74
2022/10/15 15:05:27;;;;;;;3.42;2.33;;;20.70;55.00;;;;;;20539617;28;20107;-77
2022/10/15 15:15:28;;;;;;;4.72;2.53;;;20.70;55.10;;;;;;20653946;28;20034;-76
2022/10/15 15:25:32;;;;;;;4.18;2.28;;;20.70;55.10;;;;;;20724983;28;20044;-75
2022/10/15 15:35:37;;;;;;;3.70;1.90;;;21.10;54.30;;;;;;20735983;28;20380;-76
2022/10/15 15:45:38;;;;;;;5.32;2.88;;;22.00;52.40;;;;;;20707414;28;20034;-76
2022/10/15 15:55:39;;;;;;;7.55;3.30;;;22.70;51.30;;;;;;20665290;28;20038;-74
2022/10/15 16:05:40;;;;;;;6.65;2.70;;;23.00;50.60;;;;;;20715608;28;20034;-75
2022/10/15 16:15:40;;;;;;;5.47;2.80;;;22.90;50.60;;;;;;20700428;28;20053;-80
2022/10/15 16:25:41;;;;;;;3.58;2.22;;;23.00;50.40;;;;;;20720470;28;20050;-76
2022/10/15 16:35:42;;;;;;;5.63;2.40;;;22.90;50.30;;;;;;20700854;28;20396;-75
2022/10/15 16:45:42;;;;;;;5.37;2.00;;;22.80;50.30;;;;;;20708637;28;20036;-77
2022/10/15 16:55:44;;;;;;;4.97;2.15;;;22.70;50.80;;;;;;20716406;28;20752;-78
2022/10/15 17:05:45;;;;;;;4.40;2.13;;;22.70;50.80;;;;;;20697803;28;20559;-78
2022/10/15 17:15:46;;;;;;;3.80;1.73;;;22.60;50.70;;;;;;20691173;28;20038;-77
2022/10/15 17:25:53;;;;;;;4.75;1.98;;;22.60;50.70;;;;;;21143019;27;20487;-73
2022/10/15 17:35:55;;;;;;;5.15;2.00;;;22.50;50.70;;;;;;21118562;28;20024;-74
2022/10/15 17:45:59;;;;;;;3.03;2.00;;;22.50;50.70;;;;;;21096690;28;20032;-73
2022/10/15 17:56:08;;;;;;;2.47;1.63;;;22.50;50.80;;;;;;21105234;28;20040;-73
2022/10/15 18:06:11;;;;;;;2.78;1.60;;;22.40;50.80;;;;;;21097922;28;20675;-73
2022/10/15 18:16:11;;;;;;;3.95;2.00;;;22.40;50.80;;;;;;21079080;28;20043;-75
2022/10/15 18:26:13;;;;;;;2.07;1.20;;;22.40;50.90;;;;;;21104465;28;20099;-74
2022/10/15 18:36:15;;;;;;;3.83;2.28;;;22.30;50.90;;;;;;21047212;28;20394;-74
2022/10/15 18:46:16;;;;;;;3.08;1.30;;;22.30;51.00;;;;;;21059293;28;20032;-75
2022/10/15 18:56:17;;;;;;;2.10;1.20;;;22.30;51.10;;;;;;21067589;28;20512;-75
2022/10/15 19:06:21;;;;;;;3.53;1.77;;;22.20;51.20;;;;;;21025959;28;20039;-74
2022/10/15 19:16:22;;;;;;;2.33;1.27;;;22.20;51.30;;;;;;21025591;28;20037;-76
2022/10/15 19:26:22;;;;;;;1.55;1.05;;;22.10;51.30;;;;;;21071494;28;20040;-76
2022/10/15 19:36:25;;;;;;;2.63;1.33;;;22.10;51.40;;;;;;21073084;28;20024;-74
2022/10/15 19:46:26;;;;;;;3.95;1.23;;;22.00;51.40;;;;;;21039102;28;20089;-74
2022/10/15 19:56:26;;;;;;;2.15;1.10;;;21.90;51.60;;;;;;21034865;28;20032;-74
2022/10/15 20:06:27;;;;;;;2.57;1.23;;;22.00;51.70;;;;;;21036345;28;20027;-74
2022/10/15 20:16:28;;;;;;;1.58;1.05;;;21.90;51.70;;;;;;21028704;28;20290;-74
2022/10/15 20:26:28;;;;;;;1.13;0.90;;;21.90;51.80;;;;;;21031361;28;20386;-75
2022/10/15 20:36:29;;;;;;;2.83;1.27;;;21.90;51.90;;;;;;21035326;28;20152;-74
2022/10/15 20:46:34;;;;;;;1.63;0.80;;;21.80;51.90;;;;;;21033912;28;20032;-73
2022/10/15 20:56:34;;;;;;;1.83;0.93;;;21.80;52.00;;;;;;21069559;28;20412;-74
2022/10/15 21:06:35;;;;;;;1.55;1.00;;;21.80;52.10;;;;;;21050877;28;20364;-74
2022/10/15 21:16:36;;;;;;;1.67;0.90;;;21.80;52.20;;;;;;21044590;28;20036;-75
2022/10/15 21:26:36;;;;;;;2.33;0.93;;;21.70;52.20;;;;;;21060208;28;20028;-74
2022/10/15 21:36:37;;;;;;;1.38;0.93;;;21.70;52.40;;;;;;21030650;28;20286;-74
2022/10/15 21:46:41;;;;;;;1.42;1.00;;;21.70;52.50;;;;;;21066724;28;20039;-74
2022/10/15 21:56:41;;;;;;;1.00;0.60;;;21.60;52.50;;;;;;21026917;28;20114;-75
2022/10/15 22:06:42;;;;;;;1.25;0.68;;;21.60;52.70;;;;;;21018036;28;20032;-74
2022/10/15 22:16:43;;;;;;;1.00;0.60;;;21.60;52.80;;;;;;21042269;28;20032;-73
2022/10/15 22:26:45;;;;;;;1.03;0.93;;;21.50;52.90;;;;;;21080531;28;20587;-74
2022/10/15 22:36:46;;;;;;;0.73;0.60;;;21.50;53.00;;;;;;21041326;28;20290;-76
2022/10/15 22:46:48;;;;;;;1.23;0.50;;;21.50;53.10;;;;;;21062176;28;20028;-74
2022/10/15 22:56:49;;;;;;;1.92;0.88;;;21.40;53.30;;;;;;21061997;28;20478;-75
2022/10/15 23:06:49;;;;;;;1.73;0.50;;;21.40;53.40;;;;;;21036557;28;20130;-74
2022/10/15 23:16:50;;;;;;;1.27;0.70;;;21.40;53.50;;;;;;21026742;28;20036;-75
2022/10/15 23:26:51;;;;;;;1.58;1.17;;;21.30;53.60;;;;;;21058780;28;20028;-76
2022/10/15 23:36:51;;;;;;;0.77;0.60;;;21.30;53.60;;;;;;21017864;28;20389;-75
2022/10/15 23:46:52;;;;;;;0.70;0.45;;;21.30;53.60;;;;;;21049921;28;20096;-74
2022/10/15 23:56:53;;;;;;;0.60;0.50;;;21.30;53.70;;;;;;21062965;28;20032;-74
